sensor_id;sensor_type;location;lat;lon;timestamp;P1;durP1;ratioP1;P2;durP2;ratioP2
38053;SDS011;23859;50.672;7.164;2023-05-10T00:01:40;1.55;;;0.75;;
38053;SDS011;23859;50.672;7.164;2023-05-10T00:04:06;0.80;;;0.60;;
38053;SDS011;23859;50.672;7.164;2023-05-10T00:06:32;1.73;;;0.73;;
38053;SDS011;23859;50.672;7.164;2023-05-10T00:08:58;1.58;;;0.70;;
38053;SDS011;23859;50.672;7.164;2023-05-10T00:11:24;2.28;;;0.88;;
38053;SDS011;23859;50.672;7.164;2023-05-10T00:13:50;3.22;;;0.80;;
38053;SDS011;23859;50.672;7.164;2023-05-10T00:16:16;0.52;;;0.52;;
38053;SDS011;23859;50.672;7.164;2023-05-10T00:18:42;1.88;;;1.13;;
38053;SDS011;23859;50.672;7.164;2023-05-10T00:21:08;1.65;;;0.90;;
38053;SDS011;23859;50.672;7.164;2023-05-10T00:23:34;3.08;;;0.75;;
38053;SDS011;23859;50.672;7.164;2023-05-10T00:26:01;3.05;;;0.90;;
38053;SDS011;23859;50.672;7.164;2023-05-10T00:28:27;1.77;;;0.70;;
38053;SDS011;23859;50.672;7.164;2023-05-10T00:30:53;0.90;;;0.70;;
38053;SDS011;23859;50.672;7.164;2023-05-10T00:33:20;1.90;;;1.10;;
38053;SDS011;23859;50.672;7.164;2023-05-10T00:35:46;4.22;;;1.60;;
38053;SDS011;23859;50.672;7.164;2023-05-10T00:38:12;2.22;;;0.80;;
38053;SDS011;23859;50.672;7.164;2023-05-10T00:40:39;0.60;;;0.60;;
38053;SDS011;23859;50.672;7.164;2023-05-10T00:43:05;1.20;;;0.70;;
38053;SDS011;23859;50.672;7.164;2023-05-10T00:45:32;1.05;;;0.63;;
38053;SDS011;23859;50.672;7.164;2023-05-10T00:48:03;0.70;;;0.68;;
38053;SDS011;23859;50.672;7.164;2023-05-10T00:50:30;1.80;;;0.70;;
38053;SDS011;23859;50.672;7.164;2023-05-10T00:52:57;1.42;;;1.20;;
38053;SDS011;23859;50.672;7.164;2023-05-10T00:55:25;1.85;;;0.90;;
38053;SDS011;23859;50.672;7.164;2023-05-10T00:57:52;1.27;;;0.90;;
38053;SDS011;23859;50.672;7.164;2023-05-10T01:00:19;1.67;;;1.00;;
38053;SDS011;23859;50.672;7.164;2023-05-10T01:02:45;1.25;;;0.82;;
38053;SDS011;23859;50.672;7.164;2023-05-10T01:05:12;2.40;;;0.98;;
38053;SDS011;23859;50.672;7.164;2023-05-10T01:07:39;2.60;;;1.20;;
38053;SDS011;23859;50.672;7.164;2023-05-10T01:10:06;1.10;;;1.00;;
38053;SDS011;23859;50.672;7.164;2023-05-10T01:12:34;2.45;;;1.20;;
38053;SDS011;23859;50.672;7.164;2023-05-10T01:15:03;1.60;;;1.30;;
38053;SDS011;23859;50.672;7.164;2023-05-10T01:17:31;1.25;;;0.93;;
38053;SDS011;23859;50.672;7.164;2023-05-10T01:19:59;1.67;;;1.00;;
38053;SDS011;23859;50.672;7.164;2023-05-10T01:22:39;3.65;;;1.27;;
38053;SDS011;23859;50.672;7.164;2023-05-10T01:33:55;1.55;;;1.08;;
38053;SDS011;23859;50.672;7.164;2023-05-10T01:39:01;3.35;;;1.20;;
38053;SDS011;23859;50.672;7.164;2023-05-10T01:41:45;1.27;;;1.10;;
38053;SDS011;23859;50.672;7.164;2023-05-10T01:44:32;3.40;;;1.30;;
38053;SDS011;23859;50.672;7.164;2023-05-10T01:47:14;2.03;;;1.30;;
38053;SDS011;23859;50.672;7.164;2023-05-10T01:49:50;3.28;;;1.15;;
38053;SDS011;23859;50.672;7.164;2023-05-10T01:52:22;1.73;;;1.27;;
38053;SDS011;23859;50.672;7.164;2023-05-10T01:54:58;2.92;;;0.95;;
38053;SDS011;23859;50.672;7.164;2023-05-10T01:57:27;4.07;;;1.27;;
38053;SDS011;23859;50.672;7.164;2023-05-10T01:59:57;2.00;;;1.40;;
38053;SDS011;23859;50.672;7.164;2023-05-10T02:02:24;3.15;;;1.52;;
38053;SDS011;23859;50.672;7.164;2023-05-10T02:04:53;1.65;;;1.30;;
38053;SDS011;23859;50.672;7.164;2023-05-10T02:07:21;3.50;;;1.42;;
38053;SDS011;23859;50.672;7.164;2023-05-10T02:09:49;2.28;;;1.50;;
38053;SDS011;23859;50.672;7.164;2023-05-10T02:12:16;2.30;;;1.10;;
38053;SDS011;23859;50.672;7.164;2023-05-10T02:14:43;2.63;;;1.35;;
38053;SDS011;23859;50.672;7.164;2023-05-10T02:17:11;4.78;;;1.60;;
38053;SDS011;23859;50.672;7.164;2023-05-10T02:19:40;2.92;;;1.77;;
38053;SDS011;23859;50.672;7.164;2023-05-10T02:22:06;3.30;;;1.50;;
38053;SDS011;23859;50.672;7.164;2023-05-10T02:24:34;1.98;;;1.38;;
38053;SDS011;23859;50.672;7.164;2023-05-10T02:27:03;2.13;;;1.17;;
38053;SDS011;23859;50.672;7.164;2023-05-10T02:29:31;5.47;;;1.65;;
38053;SDS011;23859;50.672;7.164;2023-05-10T02:31:58;3.15;;;1.40;;
38053;SDS011;23859;50.672;7.164;2023-05-10T02:34:25;2.08;;;1.40;;
38053;SDS011;23859;50.672;7.164;2023-05-10T02:36:53;4.47;;;1.15;;
38053;SDS011;23859;50.672;7.164;2023-05-10T02:39:21;5.43;;;1.60;;
38053;SDS011;23859;50.672;7.164;2023-05-10T02:41:48;2.38;;;1.40;;
38053;SDS011;23859;50.672;7.164;2023-05-10T02:44:17;2.85;;;1.10;;
38053;SDS011;23859;50.672;7.164;2023-05-10T02:46:45;2.78;;;1.35;;
38053;SDS011;23859;50.672;7.164;2023-05-10T02:49:11;1.30;;;1.00;;
38053;SDS011;23859;50.672;7.164;2023-05-10T02:51:40;1.88;;;1.17;;
38053;SDS011;23859;50.672;7.164;2023-05-10T02:54:12;2.60;;;0.98;;
38053;SDS011;23859;50.672;7.164;2023-05-10T02:56:46;3.75;;;1.10;;
38053;SDS011;23859;50.672;7.164;2023-05-10T02:59:16;1.87;;;1.27;;
38053;SDS011;23859;50.672;7.164;2023-05-10T03:01:42;3.53;;;1.60;;
38053;SDS011;23859;50.672;7.164;2023-05-10T03:04:08;3.97;;;1.25;;
38053;SDS011;23859;50.672;7.164;2023-05-10T03:06:34;2.13;;;1.17;;
38053;SDS011;23859;50.672;7.164;2023-05-10T03:09:01;1.80;;;1.35;;
38053;SDS011;23859;50.672;7.164;2023-05-10T03:16:57;4.18;;;1.85;;
38053;SDS011;23859;50.672;7.164;2023-05-10T03:19:29;2.90;;;1.45;;
38053;SDS011;23859;50.672;7.164;2023-05-10T03:22:03;2.88;;;1.50;;
38053;SDS011;23859;50.672;7.164;2023-05-10T03:24:35;4.38;;;1.70;;
38053;SDS011;23859;50.672;7.164;2023-05-10T03:27:04;2.42;;;1.60;;
38053;SDS011;23859;50.672;7.164;2023-05-10T03:29:32;3.10;;;1.50;;
38053;SDS011;23859;50.672;7.164;2023-05-10T03:31:58;1.90;;;1.35;;
38053;SDS011;23859;50.672;7.164;2023-05-10T03:34:25;2.65;;;1.42;;
38053;SDS011;23859;50.672;7.164;2023-05-10T03:36:51;2.35;;;1.40;;
38053;SDS011;23859;50.672;7.164;2023-05-10T03:39:18;3.92;;;1.58;;
38053;SDS011;23859;50.672;7.164;2023-05-10T03:41:44;3.67;;;1.65;;
38053;SDS011;23859;50.672;7.164;2023-05-10T03:44:10;2.88;;;1.60;;
38053;SDS011;23859;50.672;7.164;2023-05-10T03:46:36;2.58;;;1.50;;
38053;SDS011;23859;50.672;7.164;2023-05-10T03:49:02;2.55;;;1.55;;
38053;SDS011;23859;50.672;7.164;2023-05-10T03:51:28;7.82;;;1.92;;
38053;SDS011;23859;50.672;7.164;2023-05-10T03:53:56;2.55;;;1.75;;
38053;SDS011;23859;50.672;7.164;2023-05-10T03:56:22;5.32;;;1.73;;
38053;SDS011;23859;50.672;7.164;2023-05-10T03:58:48;1.98;;;1.60;;
38053;SDS011;23859;50.672;7.164;2023-05-10T04:01:14;6.70;;;1.77;;
38053;SDS011;23859;50.672;7.164;2023-05-10T04:03:40;6.35;;;2.05;;
38053;SDS011;23859;50.672;7.164;2023-05-10T04:06:06;6.25;;;2.20;;
38053;SDS011;23859;50.672;7.164;2023-05-10T04:08:34;3.60;;;2.05;;
38053;SDS011;23859;50.672;7.164;2023-05-10T04:11:10;7.28;;;2.78;;
38053;SDS011;23859;50.672;7.164;2023-05-10T04:13:37;10.38;;;3.08;;
38053;SDS011;23859;50.672;7.164;2023-05-10T04:16:03;9.43;;;3.42;;
38053;SDS011;23859;50.672;7.164;2023-05-10T04:18:30;12.98;;;4.45;;
38053;SDS011;23859;50.672;7.164;2023-05-10T04:20:56;8.13;;;3.40;;
38053;SDS011;23859;50.672;7.164;2023-05-10T04:23:23;11.82;;;5.05;;
38053;SDS011;23859;50.672;7.164;2023-05-10T04:25:49;12.43;;;4.50;;
38053;SDS011;23859;50.672;7.164;2023-05-10T04:28:15;12.73;;;4.75;;
38053;SDS011;23859;50.672;7.164;2023-05-10T04:30:41;15.85;;;6.38;;
38053;SDS011;23859;50.672;7.164;2023-05-10T04:33:07;18.88;;;6.10;;
38053;SDS011;23859;50.672;7.164;2023-05-10T04:35:33;24.05;;;11.57;;
38053;SDS011;23859;50.672;7.164;2023-05-10T04:38:00;24.77;;;8.20;;
38053;SDS011;23859;50.672;7.164;2023-05-10T04:40:26;25.63;;;8.13;;
38053;SDS011;23859;50.672;7.164;2023-05-10T04:42:52;19.95;;;7.78;;
38053;SDS011;23859;50.672;7.164;2023-05-10T04:45:18;21.58;;;8.75;;
38053;SDS011;23859;50.672;7.164;2023-05-10T04:47:44;18.63;;;8.07;;
38053;SDS011;23859;50.672;7.164;2023-05-10T04:50:10;22.40;;;7.50;;
38053;SDS011;23859;50.672;7.164;2023-05-10T04:52:36;25.15;;;8.35;;
38053;SDS011;23859;50.672;7.164;2023-05-10T04:55:02;19.00;;;7.25;;
38053;SDS011;23859;50.672;7.164;2023-05-10T04:57:29;17.63;;;8.20;;
38053;SDS011;23859;50.672;7.164;2023-05-10T04:59:55;29.00;;;9.02;;
38053;SDS011;23859;50.672;7.164;2023-05-10T05:02:21;22.42;;;8.63;;
38053;SDS011;23859;50.672;7.164;2023-05-10T05:04:48;19.35;;;8.00;;
38053;SDS011;23859;50.672;7.164;2023-05-10T05:07:14;22.05;;;8.23;;
38053;SDS011;23859;50.672;7.164;2023-05-10T05:09:40;25.77;;;8.73;;
38053;SDS011;23859;50.672;7.164;2023-05-10T05:12:06;20.40;;;7.68;;
38053;SDS011;23859;50.672;7.164;2023-05-10T05:14:32;17.67;;;7.90;;
38053;SDS011;23859;50.672;7.164;2023-05-10T05:16:58;21.90;;;8.05;;
38053;SDS011;23859;50.672;7.164;2023-05-10T05:19:24;19.42;;;8.80;;
38053;SDS011;23859;50.672;7.164;2023-05-10T05:21:50;21.75;;;7.68;;
38053;SDS011;23859;50.672;7.164;2023-05-10T05:24:16;16.55;;;7.30;;
38053;SDS011;23859;50.672;7.164;2023-05-10T05:26:42;22.60;;;9.65;;
38053;SDS011;23859;50.672;7.164;2023-05-10T05:29:08;29.00;;;12.15;;
38053;SDS011;23859;50.672;7.164;2023-05-10T05:31:34;13.43;;;6.78;;
38053;SDS011;23859;50.672;7.164;2023-05-10T05:34:00;17.65;;;7.20;;
38053;SDS011;23859;50.672;7.164;2023-05-10T05:36:27;27.48;;;12.88;;
38053;SDS011;23859;50.672;7.164;2023-05-10T05:38:53;13.15;;;6.13;;
38053;SDS011;23859;50.672;7.164;2023-05-10T05:41:19;15.90;;;6.90;;
38053;SDS011;23859;50.672;7.164;2023-05-10T05:43:46;12.82;;;6.40;;
38053;SDS011;23859;50.672;7.164;2023-05-10T05:46:12;17.25;;;5.80;;
38053;SDS011;23859;50.672;7.164;2023-05-10T05:48:38;13.75;;;6.90;;
38053;SDS011;23859;50.672;7.164;2023-05-10T05:51:04;12.95;;;6.88;;
38053;SDS011;23859;50.672;7.164;2023-05-10T05:53:30;11.38;;;6.35;;
38053;SDS011;23859;50.672;7.164;2023-05-10T05:55:57;15.27;;;6.03;;
38053;SDS011;23859;50.672;7.164;2023-05-10T05:58:24;12.70;;;6.60;;
38053;SDS011;23859;50.672;7.164;2023-05-10T06:00:50;13.02;;;5.75;;
38053;SDS011;23859;50.672;7.164;2023-05-10T06:03:17;16.15;;;6.15;;
38053;SDS011;23859;50.672;7.164;2023-05-10T06:05:43;17.42;;;5.75;;
38053;SDS011;23859;50.672;7.164;2023-05-10T06:08:09;14.52;;;5.80;;
38053;SDS011;23859;50.672;7.164;2023-05-10T06:10:36;15.07;;;6.65;;
38053;SDS011;23859;50.672;7.164;2023-05-10T06:13:02;12.75;;;5.50;;
38053;SDS011;23859;50.672;7.164;2023-05-10T06:15:28;11.52;;;5.72;;
38053;SDS011;23859;50.672;7.164;2023-05-10T06:17:54;10.52;;;5.40;;
38053;SDS011;23859;50.672;7.164;2023-05-10T06:20:21;9.80;;;4.82;;
38053;SDS011;23859;50.672;7.164;2023-05-10T06:22:47;10.48;;;4.95;;
38053;SDS011;23859;50.672;7.164;2023-05-10T06:25:13;9.30;;;5.10;;
38053;SDS011;23859;50.672;7.164;2023-05-10T06:27:39;8.82;;;5.00;;
38053;SDS011;23859;50.672;7.164;2023-05-10T06:30:05;9.20;;;4.68;;
38053;SDS011;23859;50.672;7.164;2023-05-10T06:32:33;10.23;;;4.93;;
38053;SDS011;23859;50.672;7.164;2023-05-10T06:34:59;9.70;;;4.85;;
38053;SDS011;23859;50.672;7.164;2023-05-10T06:37:25;8.95;;;4.97;;
38053;SDS011;23859;50.672;7.164;2023-05-10T06:39:51;13.98;;;6.35;;
38053;SDS011;23859;50.672;7.164;2023-05-10T06:42:17;10.32;;;5.78;;
38053;SDS011;23859;50.672;7.164;2023-05-10T06:44:43;9.20;;;5.32;;
38053;SDS011;23859;50.672;7.164;2023-05-10T06:47:09;11.18;;;5.72;;
38053;SDS011;23859;50.672;7.164;2023-05-10T06:49:35;10.07;;;5.20;;
38053;SDS011;23859;50.672;7.164;2023-05-10T06:52:02;9.82;;;5.15;;
38053;SDS011;23859;50.672;7.164;2023-05-10T06:54:28;10.63;;;5.60;;
38053;SDS011;23859;50.672;7.164;2023-05-10T06:56:54;9.80;;;5.50;;
38053;SDS011;23859;50.672;7.164;2023-05-10T06:59:20;12.25;;;5.78;;
38053;SDS011;23859;50.672;7.164;2023-05-10T07:01:46;11.55;;;5.20;;
38053;SDS011;23859;50.672;7.164;2023-05-10T07:04:12;9.88;;;5.68;;
38053;SDS011;23859;50.672;7.164;2023-05-10T07:06:38;9.40;;;4.88;;
38053;SDS011;23859;50.672;7.164;2023-05-10T07:09:14;6.82;;;4.97;;
38053;SDS011;23859;50.672;7.164;2023-05-10T07:11:41;11.65;;;4.88;;
38053;SDS011;23859;50.672;7.164;2023-05-10T07:14:07;8.95;;;5.10;;
38053;SDS011;23859;50.672;7.164;2023-05-10T07:16:33;11.68;;;4.75;;
38053;SDS011;23859;50.672;7.164;2023-05-10T07:18:59;9.55;;;5.18;;
38053;SDS011;23859;50.672;7.164;2023-05-10T07:21:25;10.85;;;5.82;;
38053;SDS011;23859;50.672;7.164;2023-05-10T07:23:53;14.57;;;5.70;;
38053;SDS011;23859;50.672;7.164;2023-05-10T07:26:19;12.10;;;5.55;;
38053;SDS011;23859;50.672;7.164;2023-05-10T07:28:45;8.27;;;5.20;;
38053;SDS011;23859;50.672;7.164;2023-05-10T07:31:12;12.35;;;5.20;;
38053;SDS011;23859;50.672;7.164;2023-05-10T07:33:38;8.57;;;5.15;;
38053;SDS011;23859;50.672;7.164;2023-05-10T07:36:04;10.05;;;5.25;;
38053;SDS011;23859;50.672;7.164;2023-05-10T07:38:31;10.45;;;5.85;;
38053;SDS011;23859;50.672;7.164;2023-05-10T07:40:57;9.48;;;5.60;;
38053;SDS011;23859;50.672;7.164;2023-05-10T07:43:23;11.40;;;5.47;;
38053;SDS011;23859;50.672;7.164;2023-05-10T07:45:49;9.23;;;5.30;;
38053;SDS011;23859;50.672;7.164;2023-05-10T07:48:15;13.93;;;6.07;;
38053;SDS011;23859;50.672;7.164;2023-05-10T07:50:41;9.07;;;5.47;;
38053;SDS011;23859;50.672;7.164;2023-05-10T07:53:07;8.35;;;5.53;;
38053;SDS011;23859;50.672;7.164;2023-05-10T07:55:33;13.52;;;6.72;;
38053;SDS011;23859;50.672;7.164;2023-05-10T07:57:59;13.48;;;6.00;;
38053;SDS011;23859;50.672;7.164;2023-05-10T08:00:26;16.20;;;5.68;;
38053;SDS011;23859;50.672;7.164;2023-05-10T08:02:52;8.88;;;4.72;;
38053;SDS011;23859;50.672;7.164;2023-05-10T08:05:18;12.90;;;5.65;;
38053;SDS011;23859;50.672;7.164;2023-05-10T08:07:44;9.45;;;5.35;;
38053;SDS011;23859;50.672;7.164;2023-05-10T08:10:10;9.13;;;5.55;;
38053;SDS011;23859;50.672;7.164;2023-05-10T08:12:36;12.63;;;5.68;;
38053;SDS011;23859;50.672;7.164;2023-05-10T08:15:03;8.93;;;4.43;;
38053;SDS011;23859;50.672;7.164;2023-05-10T08:17:29;9.55;;;4.97;;
38053;SDS011;23859;50.672;7.164;2023-05-10T08:19:55;6.00;;;4.30;;
38053;SDS011;23859;50.672;7.164;2023-05-10T08:22:21;8.57;;;4.35;;
38053;SDS011;23859;50.672;7.164;2023-05-10T08:24:47;6.53;;;3.80;;
38053;SDS011;23859;50.672;7.164;2023-05-10T08:27:14;5.22;;;3.53;;
38053;SDS011;23859;50.672;7.164;2023-05-10T08:29:40;8.65;;;4.20;;
38053;SDS011;23859;50.672;7.164;2023-05-10T08:32:06;6.38;;;4.03;;
38053;SDS011;23859;50.672;7.164;2023-05-10T08:34:32;10.23;;;3.30;;
38053;SDS011;23859;50.672;7.164;2023-05-10T08:36:58;7.85;;;3.63;;
38053;SDS011;23859;50.672;7.164;2023-05-10T08:39:24;7.95;;;3.40;;
38053;SDS011;23859;50.672;7.164;2023-05-10T08:41:50;5.80;;;3.05;;
38053;SDS011;23859;50.672;7.164;2023-05-10T08:44:18;5.90;;;3.08;;
38053;SDS011;23859;50.672;7.164;2023-05-10T08:46:45;5.07;;;3.67;;
38053;SDS011;23859;50.672;7.164;2023-05-10T08:49:18;3.58;;;2.60;;
38053;SDS011;23859;50.672;7.164;2023-05-10T08:51:47;5.70;;;2.67;;
38053;SDS011;23859;50.672;7.164;2023-05-10T08:54:19;3.65;;;2.67;;
38053;SDS011;23859;50.672;7.164;2023-05-10T08:56:47;5.15;;;2.90;;
38053;SDS011;23859;50.672;7.164;2023-05-10T08:59:13;7.88;;;3.08;;
38053;SDS011;23859;50.672;7.164;2023-05-10T09:01:40;4.32;;;2.92;;
38053;SDS011;23859;50.672;7.164;2023-05-10T09:04:09;7.03;;;2.88;;
38053;SDS011;23859;50.672;7.164;2023-05-10T09:06:36;5.63;;;3.10;;
38053;SDS011;23859;50.672;7.164;2023-05-10T09:09:03;4.35;;;2.58;;
38053;SDS011;23859;50.672;7.164;2023-05-10T09:11:29;2.20;;;1.40;;
38053;SDS011;23859;50.672;7.164;2023-05-10T09:13:56;1.70;;;1.20;;
38053;SDS011;23859;50.672;7.164;2023-05-10T09:16:22;3.20;;;1.20;;
38053;SDS011;23859;50.672;7.164;2023-05-10T09:18:49;4.75;;;1.42;;
38053;SDS011;23859;50.672;7.164;2023-05-10T09:21:15;2.17;;;1.10;;
38053;SDS011;23859;50.672;7.164;2023-05-10T09:23:47;2.47;;;1.00;;
38053;SDS011;23859;50.672;7.164;2023-05-10T09:31:20;3.28;;;1.00;;
38053;SDS011;23859;50.672;7.164;2023-05-10T09:33:47;2.15;;;0.85;;
38053;SDS011;23859;50.672;7.164;2023-05-10T09:36:14;4.63;;;1.13;;
38053;SDS011;23859;50.672;7.164;2023-05-10T09:38:48;1.95;;;0.80;;
38053;SDS011;23859;50.672;7.164;2023-05-10T09:41:16;1.38;;;0.95;;
38053;SDS011;23859;50.672;7.164;2023-05-10T09:43:46;3.45;;;1.17;;
38053;SDS011;23859;50.672;7.164;2023-05-10T09:46:12;1.30;;;0.93;;
38053;SDS011;23859;50.672;7.164;2023-05-10T09:48:43;2.03;;;0.80;;
38053;SDS011;23859;50.672;7.164;2023-05-10T09:51:16;1.13;;;0.93;;
38053;SDS011;23859;50.672;7.164;2023-05-10T09:53:45;2.85;;;0.82;;
38053;SDS011;23859;50.672;7.164;2023-05-10T09:56:11;1.52;;;0.88;;
38053;SDS011;23859;50.672;7.164;2023-05-10T09:58:37;3.00;;;0.90;;
38053;SDS011;23859;50.672;7.164;2023-05-10T10:01:03;3.50;;;0.90;;
38053;SDS011;23859;50.672;7.164;2023-05-10T10:03:35;0.75;;;0.60;;
38053;SDS011;23859;50.672;7.164;2023-05-10T10:06:08;2.85;;;0.90;;
38053;SDS011;23859;50.672;7.164;2023-05-10T10:08:34;1.52;;;1.05;;
38053;SDS011;23859;50.672;7.164;2023-05-10T10:11:00;3.65;;;0.93;;
38053;SDS011;23859;50.672;7.164;2023-05-10T10:13:27;2.92;;;1.35;;
38053;SDS011;23859;50.672;7.164;2023-05-10T10:15:53;1.83;;;1.05;;
38053;SDS011;23859;50.672;7.164;2023-05-10T10:18:20;1.75;;;0.80;;
38053;SDS011;23859;50.672;7.164;2023-05-10T10:20:51;0.88;;;0.85;;
38053;SDS011;23859;50.672;7.164;2023-05-10T10:23:19;1.60;;;0.90;;
38053;SDS011;23859;50.672;7.164;2023-05-10T10:25:45;1.98;;;1.02;;
38053;SDS011;23859;50.672;7.164;2023-05-10T10:31:03;1.08;;;0.80;;
38053;SDS011;23859;50.672;7.164;2023-05-10T10:36:28;1.63;;;0.77;;
38053;SDS011;23859;50.672;7.164;2023-05-10T10:38:58;2.28;;;0.77;;
38053;SDS011;23859;50.672;7.164;2023-05-10T10:41:29;2.22;;;0.98;;
38053;SDS011;23859;50.672;7.164;2023-05-10T10:49:25;2.53;;;0.98;;
38053;SDS011;23859;50.672;7.164;2023-05-10T10:52:12;1.15;;;0.82;;
38053;SDS011;23859;50.672;7.164;2023-05-10T10:54:40;1.40;;;1.30;;
38053;SDS011;23859;50.672;7.164;2023-05-10T10:57:10;1.23;;;1.00;;
38053;SDS011;23859;50.672;7.164;2023-05-10T10:59:41;1.15;;;0.80;;
38053;SDS011;23859;50.672;7.164;2023-05-10T11:02:32;1.00;;;0.90;;
38053;SDS011;23859;50.672;7.164;2023-05-10T11:05:00;0.70;;;0.63;;
38053;SDS011;23859;50.672;7.164;2023-05-10T11:07:55;0.93;;;0.80;;
38053;SDS011;23859;50.672;7.164;2023-05-10T11:10:23;1.00;;;0.80;;
38053;SDS011;23859;50.672;7.164;2023-05-10T11:12:51;1.20;;;0.90;;
38053;SDS011;23859;50.672;7.164;2023-05-10T11:15:19;1.35;;;1.13;;
38053;SDS011;23859;50.672;7.164;2023-05-10T11:17:53;1.40;;;0.93;;
38053;SDS011;23859;50.672;7.164;2023-05-10T11:20:19;1.88;;;1.17;;
38053;SDS011;23859;50.672;7.164;2023-05-10T11:22:52;1.52;;;0.98;;
38053;SDS011;23859;50.672;7.164;2023-05-10T11:25:19;1.30;;;1.02;;
38053;SDS011;23859;50.672;7.164;2023-05-10T11:27:50;0.90;;;0.88;;
38053;SDS011;23859;50.672;7.164;2023-05-10T11:30:17;1.67;;;1.15;;
38053;SDS011;23859;50.672;7.164;2023-05-10T11:32:44;0.85;;;0.85;;
38053;SDS011;23859;50.672;7.164;2023-05-10T11:35:11;1.02;;;0.93;;
38053;SDS011;23859;50.672;7.164;2023-05-10T11:37:40;2.92;;;1.02;;
38053;SDS011;23859;50.672;7.164;2023-05-10T11:40:08;0.73;;;0.70;;
38053;SDS011;23859;50.672;7.164;2023-05-10T11:42:38;0.82;;;0.57;;
38053;SDS011;23859;50.672;7.164;2023-05-10T11:45:05;0.52;;;0.52;;
38053;SDS011;23859;50.672;7.164;2023-05-10T11:47:32;0.70;;;0.70;;
38053;SDS011;23859;50.672;7.164;2023-05-10T11:50:00;0.60;;;0.60;;
38053;SDS011;23859;50.672;7.164;2023-05-10T11:52:26;2.28;;;0.77;;
38053;SDS011;23859;50.672;7.164;2023-05-10T11:54:53;0.55;;;0.52;;
38053;SDS011;23859;50.672;7.164;2023-05-10T11:57:19;0.63;;;0.50;;
38053;SDS011;23859;50.672;7.164;2023-05-10T11:59:53;0.68;;;0.68;;
38053;SDS011;23859;50.672;7.164;2023-05-10T12:02:21;0.50;;;0.50;;
38053;SDS011;23859;50.672;7.164;2023-05-10T12:04:47;1.58;;;0.70;;
38053;SDS011;23859;50.672;7.164;2023-05-10T12:07:14;0.73;;;0.73;;
38053;SDS011;23859;50.672;7.164;2023-05-10T12:09:42;0.73;;;0.60;;
38053;SDS011;23859;50.672;7.164;2023-05-10T12:12:09;1.08;;;0.93;;
38053;SDS011;23859;50.672;7.164;2023-05-10T12:14:41;0.85;;;0.77;;
38053;SDS011;23859;50.672;7.164;2023-05-10T12:17:11;1.48;;;1.00;;
38053;SDS011;23859;50.672;7.164;2023-05-10T12:19:38;0.85;;;0.82;;
38053;SDS011;23859;50.672;7.164;2023-05-10T12:22:05;1.63;;;1.30;;
38053;SDS011;23859;50.672;7.164;2023-05-10T12:24:33;0.93;;;0.85;;
38053;SDS011;23859;50.672;7.164;2023-05-10T12:27:04;1.65;;;1.15;;
38053;SDS011;23859;50.672;7.164;2023-05-10T12:29:32;1.52;;;1.25;;
38053;SDS011;23859;50.672;7.164;2023-05-10T12:32:00;1.27;;;1.17;;
38053;SDS011;23859;50.672;7.164;2023-05-10T12:34:31;1.10;;;1.00;;
38053;SDS011;23859;50.672;7.164;2023-05-10T12:36:58;2.95;;;1.70;;
38053;SDS011;23859;50.672;7.164;2023-05-10T12:39:25;1.98;;;1.40;;
38053;SDS011;23859;50.672;7.164;2023-05-10T12:41:51;1.30;;;1.20;;
38053;SDS011;23859;50.672;7.164;2023-05-10T12:44:17;2.40;;;2.08;;
38053;SDS011;23859;50.672;7.164;2023-05-10T12:46:44;2.08;;;1.83;;
38053;SDS011;23859;50.672;7.164;2023-05-10T12:49:10;1.75;;;1.63;;
38053;SDS011;23859;50.672;7.164;2023-05-10T12:51:36;3.95;;;1.80;;
38053;SDS011;23859;50.672;7.164;2023-05-10T12:54:02;2.63;;;2.08;;
38053;SDS011;23859;50.672;7.164;2023-05-10T12:56:28;2.65;;;2.03;;
38053;SDS011;23859;50.672;7.164;2023-05-10T12:58:54;12.40;;;2.40;;
38053;SDS011;23859;50.672;7.164;2023-05-10T13:01:21;3.47;;;1.80;;
38053;SDS011;23859;50.672;7.164;2023-05-10T13:03:47;2.13;;;1.75;;
38053;SDS011;23859;50.672;7.164;2023-05-10T13:06:13;2.92;;;2.00;;
38053;SDS011;23859;50.672;7.164;2023-05-10T13:08:39;1.98;;;1.65;;
38053;SDS011;23859;50.672;7.164;2023-05-10T13:11:05;1.70;;;1.60;;
38053;SDS011;23859;50.672;7.164;2023-05-10T13:13:32;1.58;;;1.30;;
38053;SDS011;23859;50.672;7.164;2023-05-10T13:15:58;1.92;;;1.48;;
38053;SDS011;23859;50.672;7.164;2023-05-10T13:18:24;3.15;;;1.45;;
38053;SDS011;23859;50.672;7.164;2023-05-10T13:20:51;3.42;;;2.00;;
38053;SDS011;23859;50.672;7.164;2023-05-10T13:23:18;2.38;;;1.50;;
38053;SDS011;23859;50.672;7.164;2023-05-10T13:25:44;1.52;;;1.42;;
38053;SDS011;23859;50.672;7.164;2023-05-10T13:28:10;3.05;;;1.40;;
38053;SDS011;23859;50.672;7.164;2023-05-10T13:30:36;2.95;;;1.92;;
38053;SDS011;23859;50.672;7.164;2023-05-10T13:33:02;2.35;;;1.40;;
38053;SDS011;23859;50.672;7.164;2023-05-10T13:35:28;2.45;;;1.73;;
38053;SDS011;23859;50.672;7.164;2023-05-10T13:37:54;1.70;;;1.60;;
38053;SDS011;23859;50.672;7.164;2023-05-10T13:40:22;3.10;;;1.60;;
38053;SDS011;23859;50.672;7.164;2023-05-10T13:42:48;2.00;;;1.52;;
38053;SDS011;23859;50.672;7.164;2023-05-10T13:45:14;2.53;;;2.33;;
38053;SDS011;23859;50.672;7.164;2023-05-10T13:47:40;4.03;;;1.92;;
38053;SDS011;23859;50.672;7.164;2023-05-10T13:50:07;3.63;;;1.48;;
38053;SDS011;23859;50.672;7.164;2023-05-10T13:52:33;2.03;;;1.60;;
38053;SDS011;23859;50.672;7.164;2023-05-10T13:54:59;1.77;;;1.58;;
38053;SDS011;23859;50.672;7.164;2023-05-10T13:57:25;2.50;;;1.65;;
38053;SDS011;23859;50.672;7.164;2023-05-10T13:59:51;4.82;;;1.50;;
38053;SDS011;23859;50.672;7.164;2023-05-10T14:02:18;2.00;;;1.65;;
38053;SDS011;23859;50.672;7.164;2023-05-10T14:04:44;2.17;;;1.95;;
38053;SDS011;23859;50.672;7.164;2023-05-10T14:07:10;4.15;;;1.98;;
38053;SDS011;23859;50.672;7.164;2023-05-10T14:09:36;2.55;;;1.67;;
38053;SDS011;23859;50.672;7.164;2023-05-10T14:12:02;5.70;;;2.33;;
38053;SDS011;23859;50.672;7.164;2023-05-10T14:14:28;3.65;;;2.45;;
38053;SDS011;23859;50.672;7.164;2023-05-10T14:16:54;4.57;;;2.85;;
38053;SDS011;23859;50.672;7.164;2023-05-10T14:19:20;9.13;;;3.40;;
38053;SDS011;23859;50.672;7.164;2023-05-10T14:21:47;6.15;;;3.50;;
38053;SDS011;23859;50.672;7.164;2023-05-10T14:24:13;9.48;;;3.22;;
38053;SDS011;23859;50.672;7.164;2023-05-10T14:26:39;5.25;;;3.20;;
38053;SDS011;23859;50.672;7.164;2023-05-10T14:29:05;4.20;;;2.30;;
38053;SDS011;23859;50.672;7.164;2023-05-10T14:31:34;1.80;;;1.70;;
38053;SDS011;23859;50.672;7.164;2023-05-10T14:34:05;4.07;;;1.80;;
38053;SDS011;23859;50.672;7.164;2023-05-10T14:36:31;3.88;;;2.05;;
38053;SDS011;23859;50.672;7.164;2023-05-10T14:38:58;3.75;;;2.13;;
38053;SDS011;23859;50.672;7.164;2023-05-10T14:41:24;3.75;;;1.80;;
38053;SDS011;23859;50.672;7.164;2023-05-10T14:43:50;2.67;;;2.10;;
38053;SDS011;23859;50.672;7.164;2023-05-10T14:46:16;2.15;;;1.73;;
38053;SDS011;23859;50.672;7.164;2023-05-10T14:48:42;1.80;;;1.50;;
38053;SDS011;23859;50.672;7.164;2023-05-10T14:51:08;1.65;;;1.30;;
38053;SDS011;23859;50.672;7.164;2023-05-10T14:53:34;1.52;;;1.20;;
38053;SDS011;23859;50.672;7.164;2023-05-10T14:56:00;2.35;;;1.20;;
38053;SDS011;23859;50.672;7.164;2023-05-10T14:58:27;1.30;;;1.10;;
38053;SDS011;23859;50.672;7.164;2023-05-10T15:00:53;2.75;;;1.40;;
38053;SDS011;23859;50.672;7.164;2023-05-10T15:03:20;1.50;;;1.33;;
38053;SDS011;23859;50.672;7.164;2023-05-10T15:05:46;1.30;;;1.00;;
38053;SDS011;23859;50.672;7.164;2023-05-10T15:08:12;2.30;;;0.95;;
38053;SDS011;23859;50.672;7.164;2023-05-10T15:10:38;1.42;;;1.02;;
38053;SDS011;23859;50.672;7.164;2023-05-10T15:13:04;3.10;;;1.23;;
38053;SDS011;23859;50.672;7.164;2023-05-10T15:15:30;1.33;;;1.17;;
38053;SDS011;23859;50.672;7.164;2023-05-10T15:17:56;0.93;;;0.93;;
38053;SDS011;23859;50.672;7.164;2023-05-10T15:20:22;1.42;;;1.20;;